Time;durP1;ratioP1;P1;durP2;ratioP2;P2;SDS_P1;SDS_P2;PMS_P1;PMS_P2;Temp;Humidity;BMP_temperature;BMP_pressure;BME280_temperature;BME280_humidity;BME280_pressure;Samples;Min_cycle;Max_cycle;Signal;HPM_P1;HPM_P2
2023/09/24 04:32:52;;;;;;;0.00;0.00;;;13.80;76.60;;;;;;4845423;29;20057;-78
2023/09/24 04:35:19;;;;;;;0.10;0.10;;;13.70;76.90;;;;;;4848767;29;20463;-78
2023/09/24 04:37:48;;;;;;;0.10;0.10;;;13.80;76.90;;;;;;4847147;29;20034;-78
2023/09/24 04:40:14;;;;;;;0.10;0.10;;;13.80;76.80;;;;;;4847543;29;20497;-78
2023/09/24 04:42:44;;;;;;;0.10;0.10;;;13.80;76.80;;;;;;4847559;29;20100;-79
2023/09/24 04:45:11;;;;;;;0.05;0.05;;;13.80;76.80;;;;;;4846766;29;20054;-78
2023/09/24 04:47:40;;;;;;;0.10;0.10;;;13.80;76.80;;;;;;4847574;29;20026;-79
2023/09/24 04:50:07;;;;;;;0.00;0.00;;;13.90;76.60;;;;;;4847868;29;20030;-78
2023/09/24 04:52:34;;;;;;;0.00;0.00;;;13.80;76.90;;;;;;4847417;29;20033;-78
2023/09/24 04:55:00;;;;;;;0.10;0.10;;;13.80;76.90;;;;;;4848494;29;20052;-79
2023/09/24 04:57:26;;;;;;;0.10;0.10;;;13.90;76.70;;;;;;4847413;29;20030;-78
2023/09/24 04:59:53;;;;;;;0.10;0.10;;;14.00;76.70;;;;;;4847498;29;20095;-79
2023/09/24 05:02:23;;;;;;;0.10;0.10;;;14.00;76.60;;;;;;4844312;29;20055;-78
2023/09/24 05:04:49;;;;;;;0.10;0.10;;;14.00;76.60;;;;;;4846284;29;20092;-78
2023/09/24 05:07:15;;;;;;;0.00;0.00;;;14.00;76.60;;;;;;4846553;29;20026;-78
2023/09/24 05:09:40;;;;;;;0.10;0.10;;;14.00;76.60;;;;;;4861335;29;20045;-78
2023/09/24 05:12:06;;;;;;;0.00;0.00;;;14.00;76.60;;;;;;4847597;29;20030;-78
2023/09/24 05:14:32;;;;;;;0.10;0.10;;;13.90;76.90;;;;;;4846989;29;20090;-78
2023/09/24 05:16:58;;;;;;;0.10;0.10;;;13.90;77.10;;;;;;4847999;29;20068;-78
2023/09/24 05:19:24;;;;;;;0.10;0.10;;;13.80;77.20;;;;;;4847043;29;20600;-78
2023/09/24 05:21:49;;;;;;;0.10;0.10;;;13.80;77.40;;;;;;4830854;29;20100;-78
2023/09/24 05:24:15;;;;;;;0.10;0.10;;;13.80;77.40;;;;;;4849033;29;20050;-78
2023/09/24 05:26:41;;;;;;;0.10;0.10;;;13.80;77.30;;;;;;4863293;29;20036;-78
2023/09/24 05:29:06;;;;;;;0.10;0.10;;;13.80;77.50;;;;;;4832279;29;20095;-78
2023/09/24 05:31:32;;;;;;;0.10;0.10;;;13.70;77.50;;;;;;4836418;29;20533;-78
2023/09/24 05:33:58;;;;;;;0.00;0.00;;;13.80;77.60;;;;;;4831189;29;20045;-78
2023/09/24 05:36:24;;;;;;;0.00;0.00;;;13.80;77.50;;;;;;4829062;29;20037;-78
2023/09/24 05:38:50;;;;;;;0.10;0.10;;;13.80;77.60;;;;;;4827578;29;20550;-78
2023/09/24 05:41:16;;;;;;;0.10;0.10;;;13.80;77.60;;;;;;4828236;29;20159;-79
2023/09/24 05:43:44;;;;;;;0.10;0.10;;;13.80;77.60;;;;;;4827477;29;20565;-78
2023/09/24 05:46:16;;;;;;;0.13;0.10;;;13.80;77.80;;;;;;4828215;29;20518;-78
2023/09/24 05:48:43;;;;;;;0.00;0.00;;;13.70;77.90;;;;;;4828435;29;20041;-78
2023/09/24 05:51:08;;;;;;;0.03;0.03;;;13.80;77.90;;;;;;4827355;29;20053;-78
2023/09/24 05:53:34;;;;;;;0.10;0.10;;;13.80;78.00;;;;;;4827370;29;20038;-78
2023/09/24 05:56:02;;;;;;;0.10;0.10;;;13.80;77.90;;;;;;4817272;29;20038;-78
2023/09/24 05:58:27;;;;;;;0.10;0.10;;;13.80;78.00;;;;;;4828123;29;20043;-78
2023/09/24 06:00:56;;;;;;;0.10;0.10;;;13.80;78.10;;;;;;4828020;29;20033;-78
2023/09/24 06:03:22;;;;;;;0.00;0.00;;;13.80;77.90;;;;;;4827345;29;20035;-78
2023/09/24 06:05:47;;;;;;;0.10;0.10;;;13.80;77.90;;;;;;4828053;29;20029;-78
2023/09/24 06:08:13;;;;;;;0.10;0.10;;;13.80;77.80;;;;;;4827961;29;20406;-78
2023/09/24 06:10:44;;;;;;;0.10;0.10;;;13.90;77.90;;;;;;4828350;29;20034;-79
2023/09/24 06:13:11;;;;;;;0.10;0.10;;;13.80;77.90;;;;;;4807657;29;20069;-79
2023/09/24 06:15:37;;;;;;;0.00;0.00;;;13.80;78.20;;;;;;4809979;29;20045;-78
2023/09/24 06:18:03;;;;;;;0.10;0.10;;;13.80;78.10;;;;;;4808609;29;20039;-79
2023/09/24 06:20:29;;;;;;;0.10;0.10;;;13.90;78.20;;;;;;4823233;29;20534;-85
2023/09/24 06:22:57;;;;;;;0.10;0.10;;;14.00;77.80;;;;;;4824387;29;20058;-82
2023/09/24 06:25:23;;;;;;;0.10;0.10;;;14.10;77.90;;;;;;4829463;29;20105;-80
2023/09/24 06:27:49;;;;;;;0.10;0.10;;;14.20;77.70;;;;;;4826319;29;20034;-79
2023/09/24 06:30:15;;;;;;;0.10;0.10;;;14.20;77.60;;;;;;4827711;29;20037;-80
2023/09/24 06:32:41;;;;;;;0.00;0.00;;;14.20;77.60;;;;;;4854339;29;20048;-89
2023/09/24 06:35:07;;;;;;;0.10;0.10;;;14.20;77.30;;;;;;4843106;29;20038;-77
2023/09/24 06:37:32;;;;;;;0.05;0.05;;;14.20;77.50;;;;;;4845349;29;20038;-77
2023/09/24 06:39:58;;;;;;;0.10;0.10;;;14.20;77.50;;;;;;4844789;29;20037;-82
2023/09/24 06:42:24;;;;;;;0.10;0.10;;;14.20;77.60;;;;;;4848485;29;20041;-77
2023/09/24 06:44:50;;;;;;;0.10;0.10;;;14.20;77.70;;;;;;4845169;29;20029;-80
2023/09/24 06:47:16;;;;;;;0.10;0.10;;;14.20;77.60;;;;;;4845533;29;20086;-81
2023/09/24 06:49:42;;;;;;;0.10;0.10;;;14.20;77.60;;;;;;4861177;29;20038;-80
2023/09/24 06:52:08;;;;;;;0.10;0.10;;;14.20;77.70;;;;;;4848109;29;20553;-79
2023/09/24 06:54:34;;;;;;;0.10;0.10;;;14.20;77.60;;;;;;4865462;29;20034;-76
2023/09/24 06:57:06;;;;;;;0.10;0.10;;;14.20;77.70;;;;;;5054713;28;20409;-75
2023/09/24 06:59:31;;;;;;;0.00;0.00;;;14.10;77.80;;;;;;5052998;28;20076;-74
2023/09/24 07:01:57;;;;;;;0.10;0.10;;;14.20;77.70;;;;;;5052616;28;20017;-76
2023/09/24 07:04:23;;;;;;;0.10;0.10;;;14.30;77.50;;;;;;5052621;28;20021;-75
2023/09/24 07:06:51;;;;;;;0.10;0.10;;;14.70;76.80;;;;;;5035508;28;20057;-78
2023/09/24 07:09:17;;;;;;;0.10;0.10;;;15.60;75.10;;;;;;5032960;28;20120;-78
2023/09/24 07:11:43;;;;;;;0.10;0.10;;;15.80;73.80;;;;;;5032749;28;20053;-79
2023/09/24 07:14:09;;;;;;;0.10;0.10;;;16.10;72.90;;;;;;5032497;28;20609;-78
2023/09/24 07:16:35;;;;;;;0.30;0.30;;;16.20;72.20;;;;;;5032523;28;20037;-80
2023/09/24 07:19:02;;;;;;;0.30;0.30;;;17.00;71.00;;;;;;5032614;28;20029;-82
2023/09/24 07:21:29;;;;;;;0.30;0.30;;;19.40;64.70;;;;;;5046849;28;20048;-78
2023/09/24 07:23:56;;;;;;;0.20;0.20;;;20.90;60.40;;;;;;5051287;28;20037;-83
2023/09/24 07:26:28;;;;;;;0.30;0.30;;;21.10;58.80;;;;;;5032527;28;20121;-82
2023/09/24 07:28:54;;;;;;;0.10;0.10;;;20.40;58.90;;;;;;5031585;28;20041;-88
2023/09/24 07:31:25;;;;;;;0.30;0.30;;;19.70;60.70;;;;;;5050446;28;20419;-83
2023/09/24 07:33:53;;;;;;;0.30;0.30;;;19.30;60.50;;;;;;5049476;28;20028;-82
2023/09/24 07:36:19;;;;;;;0.10;0.10;;;18.70;61.90;;;;;;5056810;28;20112;-80
2023/09/24 07:38:45;;;;;;;0.10;0.10;;;18.00;64.30;;;;;;5051718;28;20075;-81
2023/09/24 07:41:11;;;;;;;0.10;0.10;;;17.70;65.60;;;;;;5052059;28;20028;-80
2023/09/24 07:43:44;;;;;;;0.00;0.00;;;17.40;66.90;;;;;;5048924;28;20070;-78
2023/09/24 07:46:14;;;;;;;0.00;0.00;;;17.20;67.50;;;;;;5052038;28;20029;-80
2023/09/24 07:48:42;;;;;;;0.10;0.10;;;17.10;68.60;;;;;;5043785;28;20037;-78
2023/09/24 07:51:08;;;;;;;0.10;0.10;;;16.80;69.20;;;;;;5039231;28;20037;-87
2023/09/24 07:53:34;;;;;;;0.10;0.10;;;16.80;69.80;;;;;;5049732;28;20029;-77
2023/09/24 07:56:02;;;;;;;0.05;0.05;;;16.70;70.20;;;;;;5051154;28;20586;-81
2023/09/24 07:58:32;;;;;;;0.10;0.10;;;16.70;70.70;;;;;;5049038;28;20036;-85
2023/09/24 08:01:02;;;;;;;0.10;0.10;;;16.60;70.50;;;;;;5055215;28;20094;-87
2023/09/24 08:03:27;;;;;;;0.10;0.10;;;16.60;70.80;;;;;;5069108;28;20112;-80
2023/09/24 08:05:53;;;;;;;0.00;0.00;;;16.60;70.90;;;;;;5066973;28;20048;-77
2023/09/24 08:08:18;;;;;;;0.00;0.00;;;16.60;71.00;;;;;;5056565;28;20056;-80
2023/09/24 08:10:44;;;;;;;0.10;0.10;;;16.60;71.40;;;;;;5044586;28;20060;-86
2023/09/24 08:13:10;;;;;;;0.10;0.10;;;16.60;71.40;;;;;;5035409;28;20400;-78
2023/09/24 08:15:35;;;;;;;0.00;0.00;;;16.60;71.80;;;;;;5036562;28;20036;-82
2023/09/24 08:18:02;;;;;;;0.00;0.00;;;16.70;70.70;;;;;;5033609;28;20374;-80
2023/09/24 08:20:28;;;;;;;0.00;0.00;;;16.70;71.10;;;;;;5027228;28;20468;-76
2023/09/24 08:22:54;;;;;;;0.10;0.10;;;16.70;71.60;;;;;;5025364;28;20044;-84
2023/09/24 08:25:20;;;;;;;0.10;0.10;;;16.70;71.30;;;;;;5025734;28;20115;-81
2023/09/24 08:27:45;;;;;;;0.10;0.10;;;16.80;71.40;;;;;;5027614;28;20022;-79
2023/09/24 08:30:11;;;;;;;0.00;0.00;;;16.90;71.30;;;;;;5039701;28;20029;-90
2023/09/24 08:32:37;;;;;;;0.10;0.10;;;17.00;71.20;;;;;;5057764;28;20060;-82
2023/09/24 08:35:03;;;;;;;0.05;0.05;;;17.30;70.50;;;;;;5031172;28;20052;-83
2023/09/24 08:37:28;;;;;;;0.10;0.10;;;17.40;69.70;;;;;;5033620;28;20022;-83
2023/09/24 08:39:57;;;;;;;0.10;0.10;;;17.50;70.20;;;;;;5037305;28;20047;-86
2023/09/24 08:42:23;;;;;;;0.10;0.10;;;17.70;69.90;;;;;;5043136;28;20053;-80
2023/09/24 08:45:09;;;;;;;0.10;0.10;;;17.90;69.20;;;;;;5037752;28;20056;-84
2023/09/24 08:47:36;;;;;;;0.08;0.08;;;18.30;68.80;;;;;;5036739;28;20488;-86
2023/09/24 08:50:03;;;;;;;0.00;0.00;;;18.30;67.00;;;;;;5037639;28;20391;-82
2023/09/24 08:52:33;;;;;;;0.10;0.10;;;18.30;67.60;;;;;;5039125;28;20018;-91
2023/09/24 08:55:00;;;;;;;0.10;0.10;;;18.20;68.00;;;;;;5038264;28;20045;-80
2023/09/24 08:57:26;;;;;;;0.10;0.10;;;18.20;68.00;;;;;;5036276;28;20053;-87
2023/09/24 08:59:51;;;;;;;0.10;0.10;;;18.10;67.60;;;;;;5037782;28;20044;-90
2023/09/24 09:02:17;;;;;;;0.03;0.03;;;18.20;68.20;;;;;;5039932;28;20033;-81
2023/09/24 09:04:50;;;;;;;0.00;0.00;;;18.30;67.30;;;;;;5035849;28;20040;-84
2023/09/24 09:07:16;;;;;;;0.00;0.00;;;18.50;66.50;;;;;;5036172;28;20071;-81
2023/09/24 09:09:55;;;;;;;0.10;0.10;;;18.50;66.60;;;;;;5035991;28;20033;-81
2023/09/24 09:12:23;;;;;;;0.10;0.10;;;18.60;66.90;;;;;;5032475;28;20033;-83
2023/09/24 09:14:49;;;;;;;0.00;0.00;;;18.60;66.90;;;;;;5037789;28;20021;-80
2023/09/24 09:17:14;;;;;;;0.10;0.10;;;18.70;67.50;;;;;;5040749;28;20017;-82
2023/09/24 09:19:47;;;;;;;0.10;0.10;;;18.50;66.70;;;;;;5030181;28;20033;-81
2023/09/24 09:22:24;;;;;;;0.00;0.00;;;18.50;67.00;;;;;;5028968;28;20100;-82
2023/09/24 09:25:10;;;;;;;0.00;0.00;;;18.50;67.90;;;;;;5040739;28;20024;-82
2023/09/24 09:27:37;;;;;;;0.10;0.10;;;18.50;67.40;;;;;;5038858;28;20040;-83
2023/09/24 09:30:15;;;;;;;0.00;0.00;;;18.50;67.60;;;;;;5050375;28;20070;-82
2023/09/24 09:32:42;;;;;;;0.10;0.10;;;18.50;68.00;;;;;;5040590;28;20029;-82
2023/09/24 09:35:08;;;;;;;0.03;0.03;;;18.60;67.60;;;;;;5031071;28;20037;-82
2023/09/24 09:37:34;;;;;;;0.00;0.00;;;18.60;68.00;;;;;;5038204;28;20495;-82
2023/09/24 09:39:59;;;;;;;0.00;0.00;;;18.70;67.90;;;;;;5035744;28;20029;-82
2023/09/24 09:42:30;;;;;;;0.10;0.10;;;18.70;68.10;;;;;;5027294;28;20029;-83
2023/09/24 09:45:01;;;;;;;0.00;0.00;;;18.80;68.80;;;;;;5038395;28;20067;-82
2023/09/24 09:47:29;;;;;;;0.10;0.10;;;18.90;68.60;;;;;;5028367;28;20040;-78
2023/09/24 09:50:00;;;;;;;0.00;0.00;;;18.90;68.10;;;;;;5036324;28;20028;-90
2023/09/24 09:52:35;;;;;;;0.08;0.08;;;18.90;67.20;;;;;;5034436;28;20456;-83
2023/09/24 09:55:06;;;;;;;0.10;0.10;;;18.90;67.70;;;;;;5043655;28;20048;-84
2023/09/24 09:57:32;;;;;;;0.00;0.00;;;19.00;68.40;;;;;;5039052;28;20041;-84
2023/09/24 10:00:00;;;;;;;0.10;0.10;;;19.10;67.50;;;;;;5016524;28;20105;-91
2023/09/24 10:02:28;;;;;;;0.05;0.05;;;19.20;67.70;;;;;;5027357;28;20030;-90
2023/09/24 10:04:58;;;;;;;0.10;0.10;;;19.20;67.00;;;;;;5034739;28;20124;-85
2023/09/24 10:07:24;;;;;;;0.00;0.00;;;19.30;67.40;;;;;;5017678;28;20026;-83
2023/09/24 10:09:50;;;;;;;0.10;0.10;;;19.40;67.30;;;;;;5023523;28;20091;-87
2023/09/24 10:12:34;;;;;;;0.00;0.00;;;19.50;66.70;;;;;;5032873;28;20037;-82
2023/09/24 10:15:27;;;;;;;0.10;0.10;;;19.60;65.90;;;;;;5029628;28;20567;-80
2023/09/24 10:18:11;;;;;;;0.08;0.08;;;19.70;65.50;;;;;;5027304;28;20504;-84
2023/09/24 10:20:49;;;;;;;0.00;0.00;;;19.70;66.80;;;;;;5063788;28;20040;-82
2023/09/24 10:23:30;;;;;;;0.10;0.10;;;19.70;65.70;;;;;;5034093;28;20029;-86
2023/09/24 10:26:06;;;;;;;0.00;0.00;;;19.80;66.30;;;;;;5036023;28;20037;-90
2023/09/24 10:28:48;;;;;;;0.05;0.05;;;19.80;66.70;;;;;;5019943;28;20049;-81
2023/09/24 10:31:16;;;;;;;0.10;0.10;;;20.10;66.20;;;;;;5031461;28;20658;-79
2023/09/24 10:34:02;;;;;;;0.10;0.10;;;20.30;65.80;;;;;;5034162;28;20033;-86
2023/09/24 10:36:29;;;;;;;0.10;0.10;;;20.40;65.30;;;;;;5029177;28;20128;-83
2023/09/24 10:39:04;;;;;;;0.00;0.00;;;20.50;65.00;;;;;;5025077;28;20519;-86
2023/09/24 10:41:32;;;;;;;0.03;0.03;;;20.80;65.20;;;;;;5031499;28;20045;-78
2023/09/24 10:44:22;;;;;;;0.00;0.00;;;20.70;64.30;;;;;;5035272;28;20077;-82
2023/09/24 10:46:48;;;;;;;0.00;0.00;;;20.60;64.00;;;;;;5035561;28;20080;-79
2023/09/24 10:49:22;;;;;;;0.00;0.00;;;20.40;63.70;;;;;;5019228;28;20037;-83
2023/09/24 10:51:48;;;;;;;0.10;0.10;;;20.40;65.00;;;;;;5014712;28;20036;-81
2023/09/24 10:54:15;;;;;;;0.00;0.00;;;20.50;64.80;;;;;;5015602;28;20124;-84
2023/09/24 10:56:46;;;;;;;0.00;0.00;;;20.50;63.90;;;;;;5015687;28;20127;-79
2023/09/24 10:59:16;;;;;;;0.05;0.05;;;20.60;63.50;;;;;;5015832;28;20028;-83
2023/09/24 11:01:43;;;;;;;0.00;0.00;;;20.60;63.50;;;;;;5013979;28;20359;-78
2023/09/24 11:04:09;;;;;;;0.00;0.00;;;20.50;64.30;;;;;;5032832;28;20017;-86
2023/09/24 11:06:35;;;;;;;0.00;0.00;;;20.40;64.30;;;;;;5034538;28;20048;-90
2023/09/24 11:09:21;;;;;;;0.03;0.03;;;20.40;64.10;;;;;;5031103;28;20048;-80
2023/09/24 11:11:47;;;;;;;0.00;0.00;;;20.30;63.20;;;;;;5031430;28;20026;-83
2023/09/24 11:14:22;;;;;;;0.00;0.00;;;20.30;62.90;;;;;;5015851;28;20105;-85
2023/09/24 11:16:52;;;;;;;0.00;0.00;;;20.30;63.70;;;;;;5014262;28;20038;-82
2023/09/24 11:19:47;;;;;;;0.00;0.00;;;20.40;62.70;;;;;;5047324;28;20041;-85
2023/09/24 11:22:20;;;;;;;0.00;0.00;;;20.50;62.80;;;;;;5014421;28;20440;-87
2023/09/24 11:24:50;;;;;;;0.00;0.00;;;20.80;62.00;;;;;;5038944;28;20017;-85
2023/09/24 11:27:18;;;;;;;0.10;0.10;;;20.80;62.00;;;;;;5054096;28;20025;-83
2023/09/24 11:30:00;;;;;;;0.10;0.10;;;21.00;63.60;;;;;;5054050;28;20049;-84
2023/09/24 11:32:27;;;;;;;0.07;0.07;;;21.00;63.60;;;;;;5050195;28;20029;-82
2023/09/24 11:35:13;;;;;;;0.00;0.00;;;21.20;62.10;;;;;;5030512;28;20272;-87
2023/09/24 11:37:51;;;;;;;0.10;0.10;;;21.10;61.20;;;;;;5029238;28;20029;-87
2023/09/24 11:40:33;;;;;;;0.05;0.05;;;21.00;61.00;;;;;;5032463;28;20021;-89
2023/09/24 11:43:22;;;;;;;0.10;0.10;;;21.00;62.20;;;;;;5034903;28;20029;-84
2023/09/24 11:45:50;;;;;;;0.00;0.00;;;20.90;62.50;;;;;;5037120;28;20029;-78
2023/09/24 11:48:21;;;;;;;0.10;0.10;;;20.90;61.70;;;;;;5033638;28;20037;-82
2023/09/24 11:50:55;;;;;;;0.10;0.10;;;20.80;61.40;;;;;;5018900;28;20030;-87
2023/09/24 11:53:22;;;;;;;0.05;0.05;;;20.70;62.00;;;;;;5018630;28;20057;-86
2023/09/24 11:55:49;;;;;;;0.00;0.00;;;20.70;62.20;;;;;;5025241;28;20523;-84
2023/09/24 11:58:20;;;;;;;0.00;0.00;;;20.70;62.40;;;;;;5038922;28;20040;-86
2023/09/24 12:00:46;;;;;;;0.00;0.00;;;20.60;62.50;;;;;;5037132;28;20049;-82
2023/09/24 12:03:13;;;;;;;0.10;0.10;;;20.70;62.90;;;;;;5034783;28;20029;-87
2023/09/24 12:05:39;;;;;;;0.00;0.00;;;20.70;63.10;;;;;;5037287;28;20033;-79
2023/09/24 12:08:06;;;;;;;0.10;0.10;;;20.80;63.20;;;;;;5018083;28;20033;-85
2023/09/24 12:10:33;;;;;;;0.03;0.03;;;21.00;63.20;;;;;;5069569;28;20022;-85
2023/09/24 12:13:02;;;;;;;0.00;0.00;;;21.30;62.00;;;;;;5036592;28;20033;-81
2023/09/24 12:15:31;;;;;;;0.10;0.10;;;21.30;61.60;;;;;;5036651;28;20029;-84
2023/09/24 12:17:58;;;;;;;0.00;0.00;;;21.30;61.10;;;;;;5036284;28;20030;-85
2023/09/24 12:20:24;;;;;;;0.00;0.00;;;21.30;61.80;;;;;;5036847;28;20048;-81
2023/09/24 12:22:49;;;;;;;0.10;0.10;;;21.20;61.80;;;;;;5038401;28;20083;-81
2023/09/24 12:25:15;;;;;;;0.00;0.00;;;21.10;60.80;;;;;;5027527;28;20109;-83
2023/09/24 12:27:41;;;;;;;0.10;0.10;;;21.10;60.90;;;;;;5018171;28;20096;-82
2023/09/24 12:30:10;;;;;;;0.00;0.00;;;21.30;61.50;;;;;;5050160;28;20026;-80
2023/09/24 12:32:36;;;;;;;0.00;0.00;;;21.10;60.00;;;;;;5019373;28;20124;-81
2023/09/24 12:35:08;;;;;;;0.00;0.00;;;21.30;61.10;;;;;;5036989;28;20036;-91
2023/09/24 12:37:37;;;;;;;0.00;0.00;;;21.30;61.00;;;;;;5037899;28;20026;-87
2023/09/24 12:40:06;;;;;;;0.00;0.00;;;21.40;60.50;;;;;;5043735;28;20756;-85
2023/09/24 12:42:36;;;;;;;0.00;0.00;;;21.50;61.30;;;;;;5037817;28;20021;-84
2023/09/24 12:45:04;;;;;;;0.05;0.05;;;21.60;59.80;;;;;;5035858;28;20392;-79
2023/09/24 12:47:32;;;;;;;0.00;0.00;;;21.60;59.50;;;;;;5047507;28;20048;-80
2023/09/24 12:49:59;;;;;;;0.05;0.05;;;21.70;59.70;;;;;;5044435;28;20116;-81
2023/09/24 12:52:25;;;;;;;0.00;0.00;;;21.80;60.30;;;;;;5017636;28;20037;-82
2023/09/24 12:54:51;;;;;;;0.00;0.00;;;22.00;59.50;;;;;;5017165;28;20037;-81
2023/09/24 12:57:17;;;;;;;0.00;0.00;;;21.90;58.10;;;;;;5049217;28;20022;-84
2023/09/24 12:59:43;;;;;;;0.10;0.10;;;22.00;58.20;;;;;;5030207;28;20048;-78
2023/09/24 13:02:08;;;;;;;0.00;0.00;;;21.90;57.60;;;;;;5018138;28;20018;-76
2023/09/24 13:04:34;;;;;;;0.10;0.10;;;22.00;58.00;;;;;;5034465;28;20021;-78
2023/09/24 13:07:00;;;;;;;0.05;0.05;;;22.00;58.10;;;;;;5064315;28;20120;-82
2023/09/24 13:09:29;;;;;;;0.00;0.00;;;22.00;58.60;;;;;;5049718;28;20030;-90
2023/09/24 13:11:56;;;;;;;0.00;0.00;;;21.90;57.40;;;;;;5017501;28;20028;-78
2023/09/24 13:14:22;;;;;;;0.00;0.00;;;21.90;57.30;;;;;;5016991;28;20064;-79
2023/09/24 13:16:48;;;;;;;0.00;0.00;;;22.00;57.50;;;;;;5018965;28;20061;-78
2023/09/24 13:19:14;;;;;;;0.00;0.00;;;22.00;57.50;;;;;;5037038;28;20049;-78
2023/09/24 13:21:41;;;;;;;0.00;0.00;;;22.10;57.20;;;;;;5034220;28;20670;-81
2023/09/24 13:24:08;;;;;;;0.00;0.00;;;22.10;58.10;;;;;;5034712;28;20045;-82
2023/09/24 13:26:35;;;;;;;0.00;0.00;;;22.10;57.40;;;;;;5056749;28;20390;-81
2023/09/24 13:29:05;;;;;;;0.00;0.00;;;22.20;58.30;;;;;;5056247;28;20021;-78
2023/09/24 13:31:31;;;;;;;0.00;0.00;;;22.30;57.80;;;;;;5056562;28;20025;-79
2023/09/24 13:33:57;;;;;;;0.10;0.10;;;22.20;55.60;;;;;;5031915;28;20029;-79
2023/09/24 13:36:22;;;;;;;0.00;0.00;;;22.20;55.90;;;;;;5035656;28;20496;-77
2023/09/24 13:38:49;;;;;;;0.00;0.00;;;22.20;57.70;;;;;;5035633;28;20538;-78
2023/09/24 13:41:15;;;;;;;0.00;0.00;;;22.30;55.70;;;;;;5028622;28;20559;-80
2023/09/24 13:43:41;;;;;;;0.00;0.00;;;22.30;55.40;;;;;;5016576;28;20026;-80
2023/09/24 13:46:06;;;;;;;0.03;0.03;;;22.30;55.10;;;;;;5016811;28;20041;-81
2023/09/24 13:48:32;;;;;;;0.00;0.00;;;22.20;55.50;;;;;;5016560;28;20400;-80
2023/09/24 13:50:58;;;;;;;0.00;0.00;;;22.30;56.00;;;;;;5016711;28;20101;-78
2023/09/24 13:53:24;;;;;;;0.00;0.00;;;22.30;55.20;;;;;;5025305;28;20072;-76
2023/09/24 13:55:49;;;;;;;0.05;0.05;;;22.20;54.60;;;;;;5036176;28;20041;-79
2023/09/24 13:58:15;;;;;;;0.10;0.10;;;22.20;55.00;;;;;;5035067;28;20121;-81
2023/09/24 14:00:45;;;;;;;0.00;0.00;;;22.30;54.90;;;;;;5036371;28;20024;-78
2023/09/24 14:03:11;;;;;;;0.00;0.00;;;22.30;54.50;;;;;;5035640;28;20022;-78
2023/09/24 14:05:37;;;;;;;0.00;0.00;;;22.30;53.30;;;;;;5035404;28;20030;-79
2023/09/24 14:13:31;;;;;;;0.00;0.00;;;22.30;54.10;;;;;;5016469;28;20049;-81
2023/09/24 14:15:56;;;;;;;0.03;0.03;;;22.30;53.90;;;;;;5016242;28;20030;-80
2023/09/24 14:18:22;;;;;;;0.00;0.00;;;22.40;53.70;;;;;;5030424;28;20029;-82
2023/09/24 14:20:48;;;;;;;0.00;0.00;;;22.40;53.70;;;;;;5035768;28;20484;-85
2023/09/24 14:23:14;;;;;;;0.10;0.10;;;22.30;52.30;;;;;;5034668;28;20021;-79
2023/09/24 14:25:41;;;;;;;0.00;0.00;;;22.30;52.50;;;;;;5040218;28;20029;-82
2023/09/24 14:28:07;;;;;;;0.10;0.10;;;22.30;52.30;;;;;;5029451;28;20033;-77
2023/09/24 14:30:37;;;;;;;0.00;0.00;;;22.30;52.70;;;;;;5022971;28;20064;-78
2023/09/24 14:33:04;;;;;;;0.00;0.00;;;22.40;53.40;;;;;;5023936;28;20037;-80
2023/09/24 14:35:30;;;;;;;0.03;0.03;;;22.40;53.50;;;;;;5033626;28;20033;-78
2023/09/24 14:37:56;;;;;;;0.10;0.10;;;22.40;52.70;;;;;;5028969;28;20091;-79
2023/09/24 14:40:21;;;;;;;0.03;0.03;;;22.50;52.80;;;;;;5033277;28;20026;-78
2023/09/24 14:42:48;;;;;;;0.00;0.00;;;22.40;51.90;;;;;;5034065;28;20033;-79
2023/09/24 14:45:14;;;;;;;0.00;0.00;;;22.40;52.30;;;;;;5024618;28;20092;-78
2023/09/24 14:47:42;;;;;;;0.00;0.00;;;22.40;51.60;;;;;;5032000;28;20061;-78
2023/09/24 14:50:12;;;;;;;0.00;0.00;;;22.40;51.60;;;;;;5033303;28;20041;-81
2023/09/24 14:52:38;;;;;;;0.00;0.00;;;22.50;51.80;;;;;;5033375;28;20435;-79
2023/09/24 14:55:04;;;;;;;0.00;0.00;;;22.60;51.60;;;;;;5031428;28;20030;-78
2023/09/24 14:57:45;;;;;;;0.00;0.00;;;22.60;50.40;;;;;;5029311;28;20665;-88
2023/09/24 15:00:27;;;;;;;;;;;;;;;;;;;;;
2023/09/24 15:02:55;;;;;;;0.10;0.10;;;22.50;48.90;;;;;;5028907;28;20041;-79
2023/09/24 15:05:22;;;;;;;0.00;0.00;;;22.60;50.40;;;;;;5030428;28;20052;-82
2023/09/24 15:07:48;;;;;;;0.00;0.00;;;22.50;48.10;;;;;;5039832;28;20140;-85
2023/09/24 15:10:13;;;;;;;0.00;0.00;;;22.60;48.90;;;;;;5046050;28;20061;-81
2023/09/24 15:12:39;;;;;;;0.05;0.05;;;22.60;47.70;;;;;;5053851;28;20442;-79
2023/09/24 15:15:05;;;;;;;0.00;0.00;;;22.60;48.50;;;;;;5054192;28;20032;-81
2023/09/24 15:17:31;;;;;;;0.00;0.00;;;22.60;48.20;;;;;;5052013;28;20044;-76
2023/09/24 15:19:59;;;;;;;0.00;0.00;;;22.60;48.20;;;;;;5057824;28;20512;-80
2023/09/24 15:22:24;;;;;;;0.00;0.00;;;22.50;49.10;;;;;;5054688;28;20491;-84
2023/09/24 15:24:50;;;;;;;0.00;0.00;;;22.50;49.80;;;;;;5058565;28;20044;-85
2023/09/24 15:27:16;;;;;;;0.00;0.00;;;22.40;49.70;;;;;;5052836;28;20047;-81
2023/09/24 15:29:41;;;;;;;0.00;0.00;;;22.40;50.10;;;;;;5054980;28;20075;-82
2023/09/24 15:32:09;;;;;;;0.00;0.00;;;22.50;50.20;;;;;;5056887;28;20056;-78
2023/09/24 15:34:35;;;;;;;0.00;0.00;;;22.50;49.70;;;;;;5019371;28;20075;-84
2023/09/24 15:37:07;;;;;;;0.00;0.00;;;22.50;48.40;;;;;;5041581;28;20112;-81
2023/09/24 15:39:32;;;;;;;0.00;0.00;;;22.40;49.00;;;;;;5037581;28;20061;-78
2023/09/24 15:41:58;;;;;;;0.00;0.00;;;22.40;49.10;;;;;;5038573;28;20079;-78
2023/09/24 15:44:24;;;;;;;0.00;0.00;;;22.30;48.00;;;;;;5048150;28;20056;-77
2023/09/24 15:46:49;;;;;;;0.00;0.00;;;22.40;48.70;;;;;;5047993;28;20368;-78
2023/09/24 15:49:15;;;;;;;0.00;0.00;;;22.40;47.60;;;;;;5044957;28;20028;-78
2023/09/24 15:51:41;;;;;;;0.00;0.00;;;22.40;46.80;;;;;;5013721;28;20032;-78
2023/09/24 15:54:06;;;;;;;0.00;0.00;;;22.30;47.20;;;;;;5036604;28;20021;-78
2023/09/24 15:56:32;;;;;;;0.00;0.00;;;22.30;46.20;;;;;;5023973;28;20048;-78
2023/09/24 15:58:58;;;;;;;0.00;0.00;;;22.30;46.00;;;;;;5037911;28;20025;-78
2023/09/24 16:01:23;;;;;;;0.00;0.00;;;22.30;46.00;;;;;;5042589;28;20869;-78
2023/09/24 16:03:49;;;;;;;0.00;0.00;;;22.30;46.30;;;;;;5037793;28;20025;-78
2023/09/24 16:06:14;;;;;;;0.00;0.00;;;22.30;45.30;;;;;;5040908;28;20081;-78
2023/09/24 16:08:40;;;;;;;0.00;0.00;;;22.20;46.30;;;;;;5049816;28;20024;-78
2023/09/24 16:11:06;;;;;;;0.00;0.00;;;22.20;46.80;;;;;;5047756;28;20037;-77
2023/09/24 16:13:32;;;;;;;0.00;0.00;;;22.20;46.60;;;;;;5047327;28;20388;-78
2023/09/24 16:15:58;;;;;;;0.08;0.08;;;22.20;47.70;;;;;;5041777;28;20037;-80
2023/09/24 16:18:24;;;;;;;0.00;0.00;;;22.20;48.10;;;;;;5038356;28;20136;-78
2023/09/24 16:20:59;;;;;;;0.00;0.00;;;22.20;47.70;;;;;;5040481;28;20053;-78
2023/09/24 16:23:25;;;;;;;0.00;0.00;;;22.10;47.70;;;;;;5038940;28;20030;-78
2023/09/24 16:25:51;;;;;;;0.00;0.00;;;22.00;48.20;;;;;;5038354;28;20116;-78
2023/09/24 16:28:16;;;;;;;0.00;0.00;;;22.00;48.30;;;;;;5035270;28;20056;-78
2023/09/24 16:30:42;;;;;;;0.00;0.00;;;22.00;48.70;;;;;;5019176;28;20044;-77
2023/09/24 16:33:08;;;;;;;0.00;0.00;;;22.00;47.60;;;;;;5034976;28;20100;-78
2023/09/24 16:35:39;;;;;;;0.00;0.00;;;21.90;48.30;;;;;;5035624;28;20113;-78
2023/09/24 16:38:05;;;;;;;0.00;0.00;;;21.80;48.70;;;;;;5033770;28;20017;-77
2023/09/24 16:40:31;;;;;;;0.00;0.00;;;21.80;48.60;;;;;;5039333;28;20431;-77
2023/09/24 16:42:57;;;;;;;0.00;0.00;;;21.70;49.20;;;;;;5039264;28;20785;-77
2023/09/24 16:45:22;;;;;;;0.00;0.00;;;21.70;50.00;;;;;;5037375;28;20075;-77
2023/09/24 16:47:48;;;;;;;0.00;0.00;;;21.70;49.90;;;;;;5046594;28;20032;-77
2023/09/24 16:50:13;;;;;;;0.00;0.00;;;21.70;49.60;;;;;;5045764;28;20554;-77
2023/09/24 16:52:39;;;;;;;0.00;0.00;;;21.60;49.10;;;;;;5038021;28;20065;-77
2023/09/24 16:55:05;;;;;;;0.00;0.00;;;21.60;48.60;;;;;;5044155;28;20040;-76
2023/09/24 16:57:31;;;;;;;0.08;0.08;;;21.50;49.00;;;;;;5048971;28;20033;-76
2023/09/24 16:59:57;;;;;;;0.00;0.00;;;21.40;48.70;;;;;;5049750;28;20554;-76
2023/09/24 17:02:23;;;;;;;0.00;0.00;;;21.30;48.90;;;;;;5045527;28;20037;-76
2023/09/24 17:04:48;;;;;;;0.00;0.00;;;21.30;48.80;;;;;;5048453;28;20025;-76
2023/09/24 17:07:14;;;;;;;0.00;0.00;;;21.30;49.40;;;;;;5050264;28;20037;-76
2023/09/24 17:09:39;;;;;;;0.00;0.00;;;21.30;49.80;;;;;;5040538;28;20025;-76
2023/09/24 17:12:05;;;;;;;0.00;0.00;;;21.30;49.60;;;;;;5031842;28;20036;-76
2023/09/24 17:14:31;;;;;;;0.00;0.00;;;21.20;49.90;;;;;;5028199;28;20052;-76
2023/09/24 17:16:57;;;;;;;0.00;0.00;;;21.10;50.60;;;;;;5033408;28;20574;-76
2023/09/24 17:19:25;;;;;;;0.00;0.00;;;21.10;50.60;;;;;;5034037;28;20507;-76
2023/09/24 17:21:51;;;;;;;0.00;0.00;;;21.00;50.00;;;;;;5027935;28;20519;-76
2023/09/24 17:24:22;;;;;;;0.00;0.00;;;21.00;50.80;;;;;;5039348;28;20104;-73
2023/09/24 17:26:48;;;;;;;0.00;0.00;;;20.90;51.00;;;;;;5032783;28;20490;-80
2023/09/24 17:29:14;;;;;;;0.00;0.00;;;20.90;51.20;;;;;;5034136;28;20021;-76